»·PEaware :: FDX3438 KSEA-KBOI

FDX3438 :: KSEA-KBOI

FLIGHT INFORMATION

Flight Status: Arrived
Operator:
Federal Express
More flights by this operator :: More flights under this callsign
Pilot: Anonymous 10623 (10623)
Aircraft: AIRBUS A310
(A310)
More flights by this aircraft type
Origin: KSEA Seattle-Tacoma Intl
United States
Destination: KBOI Boise Air Terminal/Gowen
United States
More flights between these airports :: More routes between these airports
Route: SUMMA2 SUMMA J54 BKE DEVLE KYAAN3
File this flight plan on PilotEdge
Remarks: RMK / SIMBRIEF
Altitude:
(Current/Filed)
37,000ft
Speed:
(Current/Filed)
461kts
Departed: 14-Aug-21 02:46 PM
Arrived: 14-Aug-21 03:53 PM
Distance/Time
Traveled:
346nm/1:06
Distance/Time
To Go:
Arrived

Flight Plot

Page will automatically refresh every two minutes.

Flight plan parsing failed; only flown route is shown


Map Options




Map Legend


Flown Route
Filed Route
Departure Airport
Arrival Airport
Navaid (VOR, NDB)
Fix

Horizontal Profiles

Position Reports

Time Latitude Longitude Heading Altitude Ground
Speed
14-Aug-21 14:19 47.460937 -122.301669 180 439ft 0kts
14-Aug-21 14:20 47.460937 -122.301669 180 439ft 0kts
14-Aug-21 14:21 47.460937 -122.301669 180 439ft 0kts
14-Aug-21 14:22 47.460937 -122.301669 180 439ft 0kts
14-Aug-21 14:23 47.460937 -122.301669 180 439ft 0kts
14-Aug-21 14:24 47.460937 -122.301669 180 439ft 0kts
14-Aug-21 14:25 47.460937 -122.301669 180 439ft 0kts
14-Aug-21 14:26 47.460937 -122.301669 180 439ft 0kts
14-Aug-21 14:27 47.460937 -122.301669 180 439ft 0kts
14-Aug-21 14:28 47.460937 -122.301669 180 439ft 0kts
14-Aug-21 14:29 47.460937 -122.301669 180 439ft 0kts
14-Aug-21 14:30 47.460937 -122.301669 180 439ft 0kts
14-Aug-21 14:31 47.460937 -122.301669 180 439ft 0kts
14-Aug-21 14:32 47.460937 -122.301669 180 439ft 0kts
14-Aug-21 14:33 47.460937 -122.301669 180 439ft 0kts
14-Aug-21 14:34 47.460938 -122.301669 180 439ft 0kts
14-Aug-21 14:35 47.461231 -122.301660 191 439ft 2kts
14-Aug-21 14:36 47.461669 -122.301130 249 439ft 2kts
14-Aug-21 14:37 47.461709 -122.300784 271 439ft 0kts
14-Aug-21 14:38 47.461709 -122.300784 271 439ft 0kts
14-Aug-21 14:39 47.461709 -122.300784 271 439ft 0kts
14-Aug-21 14:40 47.461764 -122.302225 283 439ft 13kts
14-Aug-21 14:41 47.463354 -122.305898 306 439ft 10kts
14-Aug-21 14:42 47.463602 -122.306395 307 439ft 0kts
14-Aug-21 14:43 47.463629 -122.306451 305 439ft 1kts
14-Aug-21 14:44 47.463035 -122.307768 182 439ft 0kts
14-Aug-21 14:45 47.442804 -122.307884 181 575ft 184kts
14-Aug-21 14:46 47.386885 -122.305160 176 3616ft 253kts
14-Aug-21 14:47 47.311132 -122.303841 185 8278ft 284kts
14-Aug-21 14:48 47.228716 -122.305835 160 12281ft 319kts
14-Aug-21 14:49 47.142909 -122.249000 162 14971ft 381kts
14-Aug-21 14:50 47.037420 -122.196588 163 19093ft 410kts
14-Aug-21 14:51 46.926192 -122.141551 163 22620ft 437kts
14-Aug-21 14:52 46.811457 -122.084614 163 23164ft 441kts
14-Aug-21 14:53 46.694854 -122.026694 163 24142ft 456kts
14-Aug-21 14:54 46.588800 -121.931789 120 27669ft 485kts
14-Aug-21 14:55 46.526704 -121.756675 123 30588ft 496kts
14-Aug-21 14:56 46.458763 -121.587119 123 33798ft 484kts
14-Aug-21 14:57 46.391566 -121.419556 122 36036ft 478kts
14-Aug-21 14:58 46.325696 -121.255991 123 37049ft 480kts
14-Aug-21 14:59 46.258530 -121.090218 123 37059ft 477kts
14-Aug-21 15:00 46.191399 -120.925581 123 37053ft 477kts
14-Aug-21 15:01 46.123873 -120.760939 123 37055ft 477kts
14-Aug-21 15:02 46.056105 -120.596673 122 37055ft 479kts
14-Aug-21 15:03 45.987941 -120.432442 122 37055ft 479kts
14-Aug-21 15:04 45.920565 -120.270980 123 37053ft 478kts
14-Aug-21 15:05 45.851730 -120.107049 123 37066ft 479kts
14-Aug-21 15:06 45.782859 -119.944012 123 37063ft 479kts
14-Aug-21 15:07 45.714835 -119.784635 124 37067ft 479kts
14-Aug-21 15:08 45.644966 -119.623098 123 37065ft 478kts
14-Aug-21 15:09 45.575416 -119.461148 123 37068ft 475kts
14-Aug-21 15:10 45.506919 -119.302602 124 37059ft 474kts
14-Aug-21 15:11 45.437668 -119.143197 124 37032ft 474kts
14-Aug-21 15:12 45.367950 -118.983675 124 36999ft 473kts
14-Aug-21 15:13 45.298882 -118.826530 124 37003ft 473kts
14-Aug-21 15:14 45.229104 -118.668646 124 37025ft 472kts
14-Aug-21 15:15 45.159117 -118.511169 124 37114ft 472kts
14-Aug-21 15:16 45.088886 -118.354016 123 37212ft 473kts
14-Aug-21 15:17 45.018081 -118.196396 124 37217ft 480kts
14-Aug-21 15:18 44.946032 -118.036936 124 37240ft 482kts
14-Aug-21 15:19 44.874537 -117.879613 124 35652ft 485kts
14-Aug-21 15:20 44.782206 -117.750335 156 32935ft 477kts
14-Aug-21 15:21 44.667845 -117.652707 150 30568ft 481kts
14-Aug-21 15:22 44.557470 -117.554171 150 28770ft 469kts
14-Aug-21 15:23 44.448226 -117.457034 150 27102ft 452kts
14-Aug-21 15:24 44.342049 -117.363110 149 24702ft 455kts
14-Aug-21 15:25 44.239783 -117.272915 150 22518ft 424kts
14-Aug-21 15:26 44.153869 -117.172941 138 20480ft 393kts
14-Aug-21 15:27 44.077309 -117.072387 139 18635ft 374kts
14-Aug-21 15:28 44.001618 -116.973697 138 16681ft 375kts
14-Aug-21 15:30 43.936226 -116.864684 124 14836ft 372kts
14-Aug-21 15:31 43.878732 -116.745237 124 12997ft 364kts
14-Aug-21 15:32 43.826462 -116.638116 124 11927ft 322kts
14-Aug-21 15:33 43.777834 -116.540151 124 10729ft 307kts
14-Aug-21 15:34 43.729911 -116.443719 124 9374ft 297kts
14-Aug-21 15:35 43.684063 -116.350395 119 8145ft 285kts
14-Aug-21 15:36 43.650200 -116.256615 116 7969ft 251kts
14-Aug-21 15:37 43.620053 -116.170086 115 7993ft 250kts
14-Aug-21 15:38 43.589862 -116.082639 115 8001ft 250kts
14-Aug-21 15:39 43.560026 -115.995880 115 8019ft 250kts
14-Aug-21 15:40 43.529875 -115.908572 115 8035ft 250kts
14-Aug-21 15:41 43.499501 -115.820688 115 8038ft 250kts
14-Aug-21 15:42 43.469503 -115.733975 115 8038ft 250kts
14-Aug-21 15:43 43.428519 -115.663042 175 8086ft 247kts
14-Aug-21 15:44 43.393442 -115.726597 271 8079ft 240kts
14-Aug-21 15:45 43.417562 -115.810403 305 7656ft 239kts
14-Aug-21 15:46 43.449583 -115.887355 296 7099ft 201kts
14-Aug-21 15:47 43.474155 -115.957052 295 6393ft 180kts
14-Aug-21 15:48 43.495462 -116.018894 295 5806ft 176kts
14-Aug-21 15:49 43.515029 -116.075765 295 4909ft 151kts
14-Aug-21 15:50 43.532404 -116.126439 295 4101ft 143kts
14-Aug-21 15:51 43.549789 -116.177006 294 3306ft 146kts
14-Aug-21 15:51 43.563139 -116.216253 296 2861ft 98kts
14-Aug-21 15:53 43.568317 -116.228882 25 2847ft 5kts
14-Aug-21 15:54 43.567670 -116.225900 116 2852ft 8kts
14-Aug-21 15:55 43.566702 -116.223061 114 2854ft 14kts
14-Aug-21 15:56 43.564204 -116.215649 115 2863ft 15kts
14-Aug-21 15:56 43.564757 -116.213263 90 2867ft 6kts
14-Aug-21 15:58 43.565120 -116.210774 359 2869ft 0kts
14-Aug-21 15:59 43.565122 -116.210774 359 2869ft 0kts
14-Aug-21 15:59 43.565122 -116.210774 359 2869ft 0kts
14-Aug-21 16:00 43.565122 -116.210774 359 2869ft 0kts

Navigation Log

Ident Type
Flight plan parsing failed, navigation log unavailable